sensor_id;sensor_type;location;lat;lon;timestamp;P1;durP1;ratioP1;P2;durP2;ratioP2
48361;SDS011;34510;51.888;5.670;2023-04-25T00:00:00;681.78;;;321.95;;
48361;SDS011;34510;51.888;5.670;2023-04-25T00:05:13;644.85;;;314.52;;
48361;SDS011;34510;51.888;5.670;2023-04-25T00:10:17;665.35;;;348.27;;
48361;SDS011;34510;51.888;5.670;2023-04-25T00:15:25;652.08;;;313.60;;
48361;SDS011;34510;51.888;5.670;2023-04-25T00:20:27;651.13;;;322.88;;
48361;SDS011;34510;51.888;5.670;2023-04-25T00:25:30;635.20;;;318.55;;
48361;SDS011;34510;51.888;5.670;2023-04-25T00:30:32;638.28;;;315.05;;
48361;SDS011;34510;51.888;5.670;2023-04-25T00:35:34;655.08;;;344.55;;
48361;SDS011;34510;51.888;5.670;2023-04-25T00:40:37;680.40;;;336.30;;
48361;SDS011;34510;51.888;5.670;2023-04-25T00:45:39;676.97;;;334.02;;
48361;SDS011;34510;51.888;5.670;2023-04-25T00:50:44;646.70;;;316.00;;
48361;SDS011;34510;51.888;5.670;2023-04-25T00:55:55;667.78;;;341.92;;
48361;SDS011;34510;51.888;5.670;2023-04-25T01:00:57;639.22;;;346.08;;
48361;SDS011;34510;51.888;5.670;2023-04-25T01:05:59;640.40;;;315.83;;
48361;SDS011;34510;51.888;5.670;2023-04-25T01:11:02;612.13;;;319.25;;
48361;SDS011;34510;51.888;5.670;2023-04-25T01:16:04;646.97;;;317.42;;
48361;SDS011;34510;51.888;5.670;2023-04-25T01:21:09;651.13;;;322.42;;
48361;SDS011;34510;51.888;5.670;2023-04-25T01:26:15;643.00;;;328.85;;
48361;SDS011;34510;51.888;5.670;2023-04-25T01:31:18;635.13;;;339.70;;
48361;SDS011;34510;51.888;5.670;2023-04-25T01:36:26;613.33;;;334.60;;
48361;SDS011;34510;51.888;5.670;2023-04-25T01:41:29;620.38;;;335.45;;
48361;SDS011;34510;51.888;5.670;2023-04-25T01:46:32;583.97;;;322.70;;
48361;SDS011;34510;51.888;5.670;2023-04-25T01:51:50;588.97;;;330.08;;
48361;SDS011;34510;51.888;5.670;2023-04-25T01:56:52;602.17;;;326.65;;
48361;SDS011;34510;51.888;5.670;2023-04-25T02:01:59;606.60;;;318.60;;
48361;SDS011;34510;51.888;5.670;2023-04-25T02:07:07;592.38;;;317.05;;
48361;SDS011;34510;51.888;5.670;2023-04-25T02:12:28;586.38;;;318.98;;
48361;SDS011;34510;51.888;5.670;2023-04-25T02:17:49;560.55;;;299.45;;
48361;SDS011;34510;51.888;5.670;2023-04-25T02:22:54;558.97;;;295.13;;
48361;SDS011;34510;51.888;5.670;2023-04-25T02:27:56;541.05;;;294.25;;
48361;SDS011;34510;51.888;5.670;2023-04-25T02:33:08;502.33;;;292.50;;
48361;SDS011;34510;51.888;5.670;2023-04-25T02:38:11;450.75;;;274.55;;
48361;SDS011;34510;51.888;5.670;2023-04-25T02:43:14;429.13;;;283.92;;
48361;SDS011;34510;51.888;5.670;2023-04-25T02:48:18;388.40;;;269.88;;
48361;SDS011;34510;51.888;5.670;2023-04-25T02:53:20;391.92;;;269.85;;
48361;SDS011;34510;51.888;5.670;2023-04-25T02:58:26;345.80;;;246.48;;
48361;SDS011;34510;51.888;5.670;2023-04-25T03:03:48;311.23;;;238.32;;
48361;SDS011;34510;51.888;5.670;2023-04-25T03:08:52;287.33;;;233.52;;
48361;SDS011;34510;51.888;5.670;2023-04-25T03:13:54;278.85;;;235.80;;
48361;SDS011;34510;51.888;5.670;2023-04-25T03:18:57;294.90;;;244.30;;
48361;SDS011;34510;51.888;5.670;2023-04-25T03:24:01;290.80;;;231.57;;
48361;SDS011;34510;51.888;5.670;2023-04-25T03:29:07;250.70;;;213.52;;
48361;SDS011;34510;51.888;5.670;2023-04-25T03:34:10;290.25;;;246.23;;
48361;SDS011;34510;51.888;5.670;2023-04-25T03:39:12;274.33;;;229.02;;
48361;SDS011;34510;51.888;5.670;2023-04-25T03:44:21;260.77;;;232.40;;
48361;SDS011;34510;51.888;5.670;2023-04-25T03:49:27;264.55;;;219.43;;
48361;SDS011;34510;51.888;5.670;2023-04-25T03:54:51;246.85;;;220.60;;
48361;SDS011;34510;51.888;5.670;2023-04-25T03:59:56;230.88;;;207.20;;
48361;SDS011;34510;51.888;5.670;2023-04-25T04:04:59;220.18;;;198.40;;
48361;SDS011;34510;51.888;5.670;2023-04-25T04:10:04;170.90;;;155.38;;
48361;SDS011;34510;51.888;5.670;2023-04-25T04:15:12;124.57;;;114.25;;
48361;SDS011;34510;51.888;5.670;2023-04-25T04:20:17;126.60;;;115.60;;
48361;SDS011;34510;51.888;5.670;2023-04-25T04:25:23;111.50;;;94.68;;
48361;SDS011;34510;51.888;5.670;2023-04-25T04:30:55;45.83;;;41.97;;
48361;SDS011;34510;51.888;5.670;2023-04-25T04:35:58;76.35;;;69.90;;
48361;SDS011;34510;51.888;5.670;2023-04-25T04:41:02;66.57;;;60.60;;
48361;SDS011;34510;51.888;5.670;2023-04-25T04:46:23;91.10;;;83.95;;
48361;SDS011;34510;51.888;5.670;2023-04-25T04:51:47;101.25;;;93.18;;
48361;SDS011;34510;51.888;5.670;2023-04-25T04:57:26;96.90;;;89.13;;
48361;SDS011;34510;51.888;5.670;2023-04-25T05:02:56;91.93;;;84.60;;
48361;SDS011;34510;51.888;5.670;2023-04-25T05:08:25;117.00;;;107.47;;
48361;SDS011;34510;51.888;5.670;2023-04-25T05:14:06;130.48;;;119.72;;
48361;SDS011;34510;51.888;5.670;2023-04-25T05:19:18;106.45;;;98.25;;
48361;SDS011;34510;51.888;5.670;2023-04-25T05:24:47;120.30;;;110.60;;
48361;SDS011;34510;51.888;5.670;2023-04-25T05:30:21;122.35;;;112.55;;
48361;SDS011;34510;51.888;5.670;2023-04-25T05:35:43;165.95;;;151.27;;
48361;SDS011;34510;51.888;5.670;2023-04-25T05:40:46;224.13;;;203.65;;
48361;SDS011;34510;51.888;5.670;2023-04-25T05:46:15;240.77;;;217.93;;
48361;SDS011;34510;51.888;5.670;2023-04-25T05:51:55;126.90;;;117.00;;
48361;SDS011;34510;51.888;5.670;2023-04-25T05:57:22;114.68;;;105.15;;
48361;SDS011;34510;51.888;5.670;2023-04-25T06:02:34;126.05;;;116.53;;
48361;SDS011;34510;51.888;5.670;2023-04-25T06:08:03;124.55;;;115.00;;
48361;SDS011;34510;51.888;5.670;2023-04-25T06:13:12;139.43;;;128.38;;
48361;SDS011;34510;51.888;5.670;2023-04-25T06:18:17;117.63;;;108.93;;
48361;SDS011;34510;51.888;5.670;2023-04-25T06:23:36;100.85;;;93.40;;
48361;SDS011;34510;51.888;5.670;2023-04-25T06:28:41;93.43;;;85.85;;
48361;SDS011;34510;51.888;5.670;2023-04-25T06:33:43;219.98;;;200.55;;
48361;SDS011;34510;51.888;5.670;2023-04-25T06:38:45;52.42;;;48.25;;
48361;SDS011;34510;51.888;5.670;2023-04-25T06:43:47;34.53;;;32.00;;
48361;SDS011;34510;51.888;5.670;2023-04-25T06:49:03;13.27;;;8.30;;
48361;SDS011;34510;51.888;5.670;2023-04-25T06:54:13;16.30;;;10.52;;
48361;SDS011;34510;51.888;5.670;2023-04-25T06:59:26;22.42;;;16.10;;
48361;SDS011;34510;51.888;5.670;2023-04-25T07:04:28;20.45;;;11.10;;
48361;SDS011;34510;51.888;5.670;2023-04-25T07:09:35;16.58;;;13.85;;
48361;SDS011;34510;51.888;5.670;2023-04-25T07:14:38;17.17;;;8.27;;
48361;SDS011;34510;51.888;5.670;2023-04-25T07:19:43;17.17;;;15.63;;
48361;SDS011;34510;51.888;5.670;2023-04-25T07:24:46;14.73;;;11.60;;
48361;SDS011;34510;51.888;5.670;2023-04-25T07:29:53;15.27;;;7.18;;
48361;SDS011;34510;51.888;5.670;2023-04-25T07:34:58;9.95;;;8.40;;
48361;SDS011;34510;51.888;5.670;2023-04-25T07:40:02;15.23;;;11.25;;
48361;SDS011;34510;51.888;5.670;2023-04-25T07:45:06;19.35;;;13.00;;
48361;SDS011;34510;51.888;5.670;2023-04-25T07:50:13;27.02;;;12.48;;
48361;SDS011;34510;51.888;5.670;2023-04-25T07:55:24;34.33;;;31.27;;
48361;SDS011;34510;51.888;5.670;2023-04-25T08:00:52;35.35;;;32.40;;
48361;SDS011;34510;51.888;5.670;2023-04-25T08:06:23;59.47;;;55.22;;
48361;SDS011;34510;51.888;5.670;2023-04-25T08:11:47;35.72;;;32.55;;
48361;SDS011;34510;51.888;5.670;2023-04-25T08:16:53;52.50;;;47.53;;
48361;SDS011;34510;51.888;5.670;2023-04-25T08:21:56;94.85;;;88.93;;
48361;SDS011;34510;51.888;5.670;2023-04-25T08:27:05;63.70;;;59.08;;
48361;SDS011;34510;51.888;5.670;2023-04-25T08:32:10;38.15;;;35.08;;
48361;SDS011;34510;51.888;5.670;2023-04-25T08:37:25;86.35;;;81.38;;
48361;SDS011;34510;51.888;5.670;2023-04-25T08:42:32;219.85;;;205.40;;
48361;SDS011;34510;51.888;5.670;2023-04-25T08:47:38;233.73;;;218.48;;
48361;SDS011;34510;51.888;5.670;2023-04-25T08:52:44;167.43;;;156.73;;
48361;SDS011;34510;51.888;5.670;2023-04-25T08:57:49;142.85;;;134.30;;
48361;SDS011;34510;51.888;5.670;2023-04-25T09:02:52;71.88;;;67.10;;
48361;SDS011;34510;51.888;5.670;2023-04-25T09:07:55;59.33;;;55.70;;
48361;SDS011;34510;51.888;5.670;2023-04-25T09:13:10;348.63;;;322.15;;
48361;SDS011;34510;51.888;5.670;2023-04-25T09:18:34;341.95;;;317.55;;
48361;SDS011;34510;51.888;5.670;2023-04-25T09:23:41;184.85;;;166.00;;
48361;SDS011;34510;51.888;5.670;2023-04-25T09:28:45;18.45;;;9.13;;
48361;SDS011;34510;51.888;5.670;2023-04-25T09:33:59;16.05;;;12.52;;
48361;SDS011;34510;51.888;5.670;2023-04-25T09:39:12;9.73;;;7.97;;
48361;SDS011;34510;51.888;5.670;2023-04-25T09:44:35;6.35;;;4.80;;
48361;SDS011;34510;51.888;5.670;2023-04-25T09:49:41;10.80;;;7.10;;
48361;SDS011;34510;51.888;5.670;2023-04-25T09:54:49;13.07;;;6.72;;
48361;SDS011;34510;51.888;5.670;2023-04-25T09:59:59;17.23;;;3.83;;
48361;SDS011;34510;51.888;5.670;2023-04-25T10:05:14;7.50;;;4.80;;
48361;SDS011;34510;51.888;5.670;2023-04-25T10:10:17;4.70;;;3.28;;
48361;SDS011;34510;51.888;5.670;2023-04-25T10:15:21;7.88;;;6.03;;
48361;SDS011;34510;51.888;5.670;2023-04-25T10:20:23;14.70;;;12.95;;
48361;SDS011;34510;51.888;5.670;2023-04-25T10:25:26;16.27;;;14.57;;
48361;SDS011;34510;51.888;5.670;2023-04-25T10:30:31;6.30;;;5.75;;
48361;SDS011;34510;51.888;5.670;2023-04-25T10:35:33;4.70;;;3.85;;
48361;SDS011;34510;51.888;5.670;2023-04-25T10:40:36;7.20;;;5.93;;
48361;SDS011;34510;51.888;5.670;2023-04-25T10:45:51;14.13;;;7.47;;
48361;SDS011;34510;51.888;5.670;2023-04-25T10:51:09;10.70;;;4.13;;
48361;SDS011;34510;51.888;5.670;2023-04-25T10:56:36;15.18;;;9.32;;
48361;SDS011;34510;51.888;5.670;2023-04-25T11:01:45;6.15;;;3.88;;
48361;SDS011;34510;51.888;5.670;2023-04-25T11:12:12;10.60;;;5.22;;
48361;SDS011;34510;51.888;5.670;2023-04-25T11:17:14;7.57;;;5.80;;
48361;SDS011;34510;51.888;5.670;2023-04-25T11:22:17;15.95;;;13.80;;
48361;SDS011;34510;51.888;5.670;2023-04-25T11:27:25;17.38;;;15.75;;
48361;SDS011;34510;51.888;5.670;2023-04-25T11:32:27;14.43;;;13.20;;
48361;SDS011;34510;51.888;5.670;2023-04-25T11:37:29;11.88;;;10.65;;
48361;SDS011;34510;51.888;5.670;2023-04-25T11:42:34;14.00;;;8.68;;
48361;SDS011;34510;51.888;5.670;2023-04-25T11:47:40;11.35;;;8.27;;
48361;SDS011;34510;51.888;5.670;2023-04-25T11:52:46;6.75;;;6.13;;
48361;SDS011;34510;51.888;5.670;2023-04-25T11:57:49;4.35;;;3.58;;
48361;SDS011;34510;51.888;5.670;2023-04-25T12:02:55;11.23;;;8.00;;
48361;SDS011;34510;51.888;5.670;2023-04-25T12:08:12;8.20;;;3.85;;
48361;SDS011;34510;51.888;5.670;2023-04-25T12:13:20;7.53;;;5.50;;
48361;SDS011;34510;51.888;5.670;2023-04-25T12:18:27;18.33;;;6.97;;
48361;SDS011;34510;51.888;5.670;2023-04-25T12:23:31;10.32;;;5.95;;
48361;SDS011;34510;51.888;5.670;2023-04-25T12:28:34;11.95;;;7.32;;
48361;SDS011;34510;51.888;5.670;2023-04-25T12:33:36;9.15;;;6.72;;
48361;SDS011;34510;51.888;5.670;2023-04-25T12:38:45;8.30;;;4.65;;
48361;SDS011;34510;51.888;5.670;2023-04-25T12:43:47;5.07;;;2.85;;
48361;SDS011;34510;51.888;5.670;2023-04-25T12:48:49;5.53;;;2.63;;
48361;SDS011;34510;51.888;5.670;2023-04-25T12:53:52;6.40;;;2.75;;
48361;SDS011;34510;51.888;5.670;2023-04-25T12:58:54;13.15;;;3.90;;
48361;SDS011;34510;51.888;5.670;2023-04-25T13:03:56;4.35;;;2.22;;
48361;SDS011;34510;51.888;5.670;2023-04-25T13:08:59;9.18;;;4.32;;
48361;SDS011;34510;51.888;5.670;2023-04-25T13:14:05;6.53;;;2.97;;
48361;SDS011;34510;51.888;5.670;2023-04-25T13:19:08;8.73;;;3.47;;
48361;SDS011;34510;51.888;5.670;2023-04-25T13:24:12;6.63;;;2.22;;
48361;SDS011;34510;51.888;5.670;2023-04-25T13:29:15;2.85;;;1.77;;
48361;SDS011;34510;51.888;5.670;2023-04-25T13:34:17;6.18;;;3.00;;
48361;SDS011;34510;51.888;5.670;2023-04-25T13:39:19;8.00;;;1.92;;
48361;SDS011;34510;51.888;5.670;2023-04-25T13:44:21;5.47;;;3.05;;
48361;SDS011;34510;51.888;5.670;2023-04-25T13:49:23;10.00;;;5.70;;
48361;SDS011;34510;51.888;5.670;2023-04-25T13:54:25;5.72;;;3.13;;
48361;SDS011;34510;51.888;5.670;2023-04-25T13:59:27;7.65;;;4.43;;
48361;SDS011;34510;51.888;5.670;2023-04-25T14:04:29;5.65;;;3.63;;
48361;SDS011;34510;51.888;5.670;2023-04-25T14:09:34;7.03;;;4.80;;
48361;SDS011;34510;51.888;5.670;2023-04-25T14:19:44;4.75;;;3.35;;
48361;SDS011;34510;51.888;5.670;2023-04-25T14:24:49;7.53;;;3.35;;
48361;SDS011;34510;51.888;5.670;2023-04-25T14:29:50;5.80;;;3.05;;
48361;SDS011;34510;51.888;5.670;2023-04-25T14:34:52;4.05;;;2.83;;
48361;SDS011;34510;51.888;5.670;2023-04-25T14:39:57;7.75;;;6.78;;
48361;SDS011;34510;51.888;5.670;2023-04-25T14:44:59;8.73;;;3.25;;
48361;SDS011;34510;51.888;5.670;2023-04-25T14:50:20;10.38;;;4.75;;
48361;SDS011;34510;51.888;5.670;2023-04-25T14:55:22;7.47;;;2.45;;
48361;SDS011;34510;51.888;5.670;2023-04-25T15:00:25;11.98;;;3.38;;
48361;SDS011;34510;51.888;5.670;2023-04-25T15:05:28;5.60;;;3.00;;
48361;SDS011;34510;51.888;5.670;2023-04-25T15:10:33;5.32;;;2.58;;
48361;SDS011;34510;51.888;5.670;2023-04-25T15:15:35;6.60;;;3.05;;
48361;SDS011;34510;51.888;5.670;2023-04-25T15:20:37;12.73;;;4.97;;
48361;SDS011;34510;51.888;5.670;2023-04-25T15:25:39;6.03;;;3.08;;
48361;SDS011;34510;51.888;5.670;2023-04-25T15:30:48;7.70;;;4.35;;
48361;SDS011;34510;51.888;5.670;2023-04-25T15:35:51;8.35;;;1.40;;
48361;SDS011;34510;51.888;5.670;2023-04-25T15:40:54;8.23;;;2.17;;
48361;SDS011;34510;51.888;5.670;2023-04-25T15:45:57;13.18;;;1.88;;
48361;SDS011;34510;51.888;5.670;2023-04-25T15:51:00;14.52;;;5.45;;
48361;SDS011;34510;51.888;5.670;2023-04-25T15:56:03;7.25;;;5.57;;
48361;SDS011;34510;51.888;5.670;2023-04-25T16:01:06;7.93;;;3.42;;
48361;SDS011;34510;51.888;5.670;2023-04-25T16:06:08;14.07;;;4.45;;
48361;SDS011;34510;51.888;5.670;2023-04-25T16:11:11;7.22;;;3.78;;
48361;SDS011;34510;51.888;5.670;2023-04-25T16:16:15;3.13;;;2.60;;
48361;SDS011;34510;51.888;5.670;2023-04-25T16:21:17;4.30;;;1.02;;
48361;SDS011;34510;51.888;5.670;2023-04-25T16:26:20;11.77;;;3.65;;
48361;SDS011;34510;51.888;5.670;2023-04-25T16:31:23;10.10;;;3.75;;
48361;SDS011;34510;51.888;5.670;2023-04-25T16:36:25;12.35;;;4.35;;
48361;SDS011;34510;51.888;5.670;2023-04-25T16:41:28;13.02;;;5.03;;
48361;SDS011;34510;51.888;5.670;2023-04-25T16:46:31;16.83;;;6.88;;
48361;SDS011;34510;51.888;5.670;2023-04-25T16:51:35;11.02;;;7.00;;
48361;SDS011;34510;51.888;5.670;2023-04-25T16:56:37;7.20;;;4.80;;
48361;SDS011;34510;51.888;5.670;2023-04-25T17:01:39;10.05;;;5.35;;
48361;SDS011;34510;51.888;5.670;2023-04-25T17:06:43;10.40;;;5.35;;
48361;SDS011;34510;51.888;5.670;2023-04-25T17:11:45;14.18;;;4.03;;
48361;SDS011;34510;51.888;5.670;2023-04-25T17:16:48;11.18;;;7.72;;
48361;SDS011;34510;51.888;5.670;2023-04-25T17:21:50;35.45;;;32.20;;
48361;SDS011;34510;51.888;5.670;2023-04-25T17:26:52;24.45;;;22.50;;
48361;SDS011;34510;51.888;5.670;2023-04-25T17:31:58;36.40;;;32.90;;
48361;SDS011;34510;51.888;5.670;2023-04-25T17:37:06;82.93;;;77.28;;
48361;SDS011;34510;51.888;5.670;2023-04-25T17:42:12;21.90;;;19.00;;
48361;SDS011;34510;51.888;5.670;2023-04-25T17:47:16;11.10;;;5.10;;
48361;SDS011;34510;51.888;5.670;2023-04-25T17:52:18;14.48;;;9.43;;
48361;SDS011;34510;51.888;5.670;2023-04-25T17:57:20;310.33;;;288.02;;
48361;SDS011;34510;51.888;5.670;2023-04-25T18:02:23;15.57;;;7.28;;
48361;SDS011;34510;51.888;5.670;2023-04-25T18:07:26;11.95;;;3.63;;
48361;SDS011;34510;51.888;5.670;2023-04-25T18:12:31;10.75;;;4.50;;
48361;SDS011;34510;51.888;5.670;2023-04-25T18:17:34;8.52;;;3.88;;
48361;SDS011;34510;51.888;5.670;2023-04-25T18:22:44;12.15;;;3.45;;
48361;SDS011;34510;51.888;5.670;2023-04-25T18:27:48;10.43;;;3.70;;
48361;SDS011;34510;51.888;5.670;2023-04-25T18:32:53;5.57;;;2.65;;
48361;SDS011;34510;51.888;5.670;2023-04-25T18:37:56;8.27;;;1.85;;
48361;SDS011;34510;51.888;5.670;2023-04-25T18:42:58;9.52;;;2.25;;
48361;SDS011;34510;51.888;5.670;2023-04-25T18:48:02;11.13;;;2.83;;
48361;SDS011;34510;51.888;5.670;2023-04-25T18:53:04;5.80;;;2.40;;
48361;SDS011;34510;51.888;5.670;2023-04-25T18:58:06;7.35;;;3.42;;
48361;SDS011;34510;51.888;5.670;2023-04-25T19:03:09;6.75;;;1.80;;
48361;SDS011;34510;51.888;5.670;2023-04-25T19:08:13;12.32;;;3.35;;
48361;SDS011;34510;51.888;5.670;2023-04-25T19:13:15;13.65;;;3.28;;
48361;SDS011;34510;51.888;5.670;2023-04-25T19:18:17;7.88;;;2.72;;
48361;SDS011;34510;51.888;5.670;2023-04-25T19:23:19;10.60;;;2.50;;
48361;SDS011;34510;51.888;5.670;2023-04-25T19:28:43;15.63;;;2.55;;
48361;SDS011;34510;51.888;5.670;2023-04-25T19:33:54;11.15;;;2.53;;
48361;SDS011;34510;51.888;5.670;2023-04-25T19:38:57;11.10;;;3.90;;
48361;SDS011;34510;51.888;5.670;2023-04-25T19:44:07;8.13;;;3.63;;
48361;SDS011;34510;51.888;5.670;2023-04-25T19:49:11;9.15;;;2.90;;
48361;SDS011;34510;51.888;5.670;2023-04-25T19:54:13;10.38;;;3.30;;
48361;SDS011;34510;51.888;5.670;2023-04-25T19:59:15;13.65;;;2.70;;
48361;SDS011;34510;51.888;5.670;2023-04-25T20:04:17;8.27;;;3.13;;
48361;SDS011;34510;51.888;5.670;2023-04-25T20:09:19;6.18;;;3.08;;
48361;SDS011;34510;51.888;5.670;2023-04-25T20:14:22;5.10;;;3.15;;
48361;SDS011;34510;51.888;5.670;2023-04-25T20:19:38;15.88;;;3.90;;
48361;SDS011;34510;51.888;5.670;2023-04-25T20:24:41;10.75;;;3.88;;
48361;SDS011;34510;51.888;5.670;2023-04-25T20:29:44;6.47;;;3.42;;
48361;SDS011;34510;51.888;5.670;2023-04-25T20:34:46;4.80;;;3.10;;
48361;SDS011;34510;51.888;5.670;2023-04-25T20:39:49;13.70;;;4.07;;
48361;SDS011;34510;51.888;5.670;2023-04-25T20:44:51;11.05;;;4.03;;
48361;SDS011;34510;51.888;5.670;2023-04-25T20:49:53;18.20;;;5.65;;
48361;SDS011;34510;51.888;5.670;2023-04-25T20:54:55;13.90;;;5.15;;
48361;SDS011;34510;51.888;5.670;2023-04-25T20:59:57;77.68;;;70.90;;
48361;SDS011;34510;51.888;5.670;2023-04-25T21:05:19;11.35;;;4.35;;
48361;SDS011;34510;51.888;5.670;2023-04-25T21:10:25;15.20;;;3.92;;
48361;SDS011;34510;51.888;5.670;2023-04-25T21:15:28;8.43;;;3.88;;
48361;SDS011;34510;51.888;5.670;2023-04-25T21:20:30;10.02;;;4.60;;
48361;SDS011;34510;51.888;5.670;2023-04-25T21:25:33;9.98;;;3.50;;
48361;SDS011;34510;51.888;5.670;2023-04-25T21:30:38;10.00;;;3.55;;
48361;SDS011;34510;51.888;5.670;2023-04-25T21:35:42;19.98;;;4.43;;
48361;SDS011;34510;51.888;5.670;2023-04-25T21:40:54;9.77;;;3.40;;
48361;SDS011;34510;51.888;5.670;2023-04-25T21:45:57;9.57;;;3.42;;
48361;SDS011;34510;51.888;5.670;2023-04-25T21:51:19;11.75;;;3.78;;
48361;SDS011;34510;51.888;5.670;2023-04-25T21:56:29;13.27;;;3.38;;
48361;SDS011;34510;51.888;5.670;2023-04-25T22:01:31;13.07;;;3.83;;
48361;SDS011;34510;51.888;5.670;2023-04-25T22:06:37;16.65;;;4.55;;
48361;SDS011;34510;51.888;5.670;2023-04-25T22:11:39;10.40;;;4.65;;
48361;SDS011;34510;51.888;5.670;2023-04-25T22:16:43;21.77;;;3.70;;
48361;SDS011;34510;51.888;5.670;2023-04-25T22:21:46;6.40;;;3.97;;
48361;SDS011;34510;51.888;5.670;2023-04-25T22:26:57;10.07;;;4.15;;
48361;SDS011;34510;51.888;5.670;2023-04-25T22:32:01;8.95;;;3.97;;
48361;SDS011;34510;51.888;5.670;2023-04-25T22:37:03;16.60;;;4.85;;
48361;SDS011;34510;51.888;5.670;2023-04-25T22:42:12;14.90;;;4.15;;
48361;SDS011;34510;51.888;5.670;2023-04-25T22:47:15;17.23;;;4.53;;
48361;SDS011;34510;51.888;5.670;2023-04-25T22:52:20;15.15;;;4.45;;
48361;SDS011;34510;51.888;5.670;2023-04-25T22:57:22;16.00;;;4.75;;
48361;SDS011;34510;51.888;5.670;2023-04-25T23:02:24;10.27;;;4.47;;
48361;SDS011;34510;51.888;5.670;2023-04-25T23:07:27;14.70;;;5.70;;
48361;SDS011;34510;51.888;5.670;2023-04-25T23:12:29;20.00;;;4.85;;
48361;SDS011;34510;51.888;5.670;2023-04-25T23:17:31;14.60;;;4.75;;
48361;SDS011;34510;51.888;5.670;2023-04-25T23:22:36;15.10;;;5.68;;
48361;SDS011;34510;51.888;5.670;2023-04-25T23:27:41;12.88;;;6.05;;
48361;SDS011;34510;51.888;5.670;2023-04-25T23:32:43;8.88;;;4.80;;
48361;SDS011;34510;51.888;5.670;2023-04-25T23:37:46;8.82;;;4.95;;
48361;SDS011;34510;51.888;5.670;2023-04-25T23:42:49;16.35;;;5.80;;
48361;SDS011;34510;51.888;5.670;2023-04-25T23:47:52;18.05;;;5.13;;
48361;SDS011;34510;51.888;5.670;2023-04-25T23:53:03;13.07;;;5.90;;
48361;SDS011;34510;51.888;5.670;2023-04-25T23:58:05;12.68;;;5.00;;
